Time;durP1;ratioP1;P1;durP2;ratioP2;P2;SDS_P1;SDS_P2;PMS_P1;PMS_P2;Temp;Humidity;BMP_temperature;BMP_pressure;BME280_temperature;BME280_humidity;BME280_pressure;Samples;Min_cycle;Max_cycle;Signal;HPM_P1;HPM_P2
2022/11/08 00:01:30;;;;;;;10.20;2.37;;;;;;;11.83;100.00;100639.94;7391310;19;20416;-49
2022/11/08 00:03:09;;;;;;;6.77;2.13;;;;;;;11.85;100.00;100642.59;7391195;19;20403;-52
2022/11/08 00:14:01;;;;;;;13.60;3.37;;;;;;;11.95;100.00;100649.81;7391426;19;20376;-55
2022/11/08 00:16:31;;;;;;;4.40;1.80;;;;;;;11.98;100.00;100644.75;7388460;19;20420;-50
2022/11/08 00:19:03;;;;;;;6.23;2.30;;;;;;;12.03;100.00;100650.09;7390020;19;20419;-50
2022/11/08 00:21:33;;;;;;;6.73;2.20;;;;;;;12.01;100.00;100647.44;7388519;19;20423;-52
2022/11/08 00:24:02;;;;;;;8.03;2.37;;;;;;;12.02;100.00;100651.78;7390986;19;20412;-53
2022/11/08 00:26:32;;;;;;;8.57;2.23;;;;;;;12.06;100.00;100660.59;7388453;19;20441;-55
2022/11/08 00:29:01;;;;;;;6.30;1.90;;;;;;;12.00;100.00;100663.78;7388077;19;20371;-52
2022/11/08 00:31:30;;;;;;;6.03;1.97;;;;;;;12.04;100.00;100667.38;7387982;19;20418;-57
2022/11/08 00:34:03;;;;;;;7.63;1.80;;;;;;;12.07;100.00;100657.16;7390379;19;20746;-53
2022/11/08 00:36:32;;;;;;;5.53;2.37;;;;;;;12.08;100.00;100655.44;7387168;19;20441;-51
2022/11/08 00:39:02;;;;;;;9.43;2.43;;;;;;;12.06;100.00;100657.09;7391298;19;20407;-52
2022/11/08 00:41:31;;;;;;;4.30;1.80;;;;;;;12.03;100.00;100660.44;7389291;19;20454;-50
2022/11/08 00:44:01;;;;;;;11.20;2.60;;;;;;;12.07;100.00;100664.03;7390311;19;20409;-56
2022/11/08 00:46:30;;;;;;;9.10;2.90;;;;;;;12.05;100.00;100665.69;7387575;19;20431;-55
2022/11/08 00:49:02;;;;;;;8.10;2.37;;;;;;;12.02;100.00;100662.13;7388156;19;20415;-52
2022/11/08 00:51:32;;;;;;;7.20;2.00;;;;;;;11.98;100.00;100664.56;7387468;19;20759;-53
2022/11/08 00:54:01;;;;;;;12.27;2.60;;;;;;;11.97;100.00;100663.69;7390043;19;20986;-56
2022/11/08 00:56:31;;;;;;;9.97;2.57;;;;;;;11.99;100.00;100659.44;7387424;19;20485;-55
2022/11/08 00:59:01;;;;;;;6.93;1.90;;;;;;;11.99;100.00;100668.91;7389140;19;20407;-50
2022/11/08 01:01:30;;;;;;;9.27;2.27;;;;;;;12.00;100.00;100657.75;7386941;19;20457;-52
2022/11/08 01:04:02;;;;;;;10.53;2.27;;;;;;;11.99;100.00;100662.03;7387098;19;20394;-50
2022/11/08 01:06:32;;;;;;;5.30;1.97;;;;;;;11.94;100.00;100658.41;7387233;19;20439;-50
2022/11/08 01:09:02;;;;;;;7.37;2.10;;;;;;;11.91;100.00;100653.13;7387392;19;20391;-53
2022/11/08 01:11:31;;;;;;;5.17;2.03;;;;;;;11.92;100.00;100662.66;7385988;19;20445;-54
2022/11/08 01:14:02;;;;;;;5.87;2.00;;;;;;;11.89;100.00;100662.53;7389491;19;20439;-51
2022/11/08 01:16:34;;;;;;;7.80;2.00;;;;;;;11.89;100.00;100652.19;7386656;19;20430;-51
2022/11/08 01:19:06;;;;;;;9.70;1.90;;;;;;;11.91;100.00;100660.91;7390093;19;20407;-51
2022/11/08 01:21:36;;;;;;;4.63;2.17;;;;;;;11.84;100.00;100661.50;7389663;19;20445;-55
2022/11/08 01:24:06;;;;;;;9.40;2.40;;;;;;;11.80;100.00;100669.97;7389474;19;20378;-55
2022/11/08 01:26:36;;;;;;;5.17;2.13;;;;;;;11.75;100.00;100670.69;7386443;19;20430;-54
2022/11/08 01:29:06;;;;;;;7.57;1.90;;;;;;;11.75;100.00;100670.69;7387068;19;20398;-52
2022/11/08 01:31:35;;;;;;;16.90;3.67;;;;;;;11.78;100.00;100666.47;7386168;19;20418;-55
2022/11/08 01:34:07;;;;;;;9.10;2.80;;;;;;;11.74;100.00;100660.28;7389281;19;20413;-53
2022/11/08 01:36:37;;;;;;;10.93;2.40;;;;;;;11.75;100.00;100657.75;7386424;19;20407;-51
2022/11/08 01:39:06;;;;;;;3.90;1.63;;;;;;;11.77;100.00;100655.25;7388110;19;20391;-54
2022/11/08 01:41:36;;;;;;;6.50;2.20;;;;;;;11.73;100.00;100648.19;7385615;19;20429;-54
2022/11/08 01:44:05;;;;;;;5.10;1.90;;;;;;;11.72;100.00;100656.78;7388884;19;20379;-51
2022/11/08 01:46:40;;;;;;;7.20;1.87;;;;;;;11.69;100.00;100654.09;7388773;19;20442;-53
2022/11/08 01:49:34;;;;;;;6.80;2.00;;;;;;;11.65;100.00;100650.53;7386617;19;20384;-53
2022/11/08 01:52:11;;;;;;;10.13;2.57;;;;;;;11.66;100.00;100649.69;7389974;19;20801;-51
2022/11/08 01:54:43;;;;;;;5.80;1.80;;;;;;;11.61;100.00;100648.66;7388220;19;20426;-50
2022/11/08 01:57:16;;;;;;;10.10;2.13;;;;;;;11.63;100.00;100641.81;7385633;19;20441;-57
2022/11/08 01:59:46;;;;;;;7.77;2.23;;;;;;;11.61;100.00;100648.66;7386574;19;20414;-52
2022/11/08 02:02:16;;;;;;;8.80;2.40;;;;;;;11.61;100.00;100648.66;7387656;19;20428;-50
2022/11/08 02:04:49;;;;;;;9.40;2.40;;;;;;;11.59;100.00;100652.88;7388065;19;20472;-51
2022/11/08 02:07:19;;;;;;;4.97;1.90;;;;;;;11.55;100.00;100641.56;7387510;19;20409;-55
2022/11/08 02:09:49;;;;;;;8.07;2.93;;;;;;;11.53;100.00;100647.50;7385203;19;20924;-50
2022/11/08 02:12:22;;;;;;;6.67;1.60;;;;;;;11.52;100.00;100644.03;7387461;19;20451;-54
2022/11/08 02:14:51;;;;;;;7.03;2.27;;;;;;;11.52;100.00;100633.69;7389063;19;20389;-50
2022/11/08 02:17:21;;;;;;;6.27;2.10;;;;;;;11.49;100.00;100625.84;7395294;19;20402;-54
2022/11/08 02:19:53;;;;;;;5.87;1.70;;;;;;;11.46;100.00;100629.19;7390626;19;20450;-53
2022/11/08 02:22:28;;;;;;;7.67;1.80;;;;;;;11.48;100.00;100621.47;7394836;19;20396;-54
2022/11/08 02:25:00;;;;;;;8.53;2.67;;;;;;;11.48;100.00;100621.47;7393046;19;20748;-52
2022/11/08 02:27:30;;;;;;;8.00;2.10;;;;;;;11.44;100.00;100623.06;7396137;19;20782;-52
2022/11/08 02:29:59;;;;;;;6.73;2.13;;;;;;;11.46;100.00;100623.13;7389452;19;20430;-54
2022/11/08 02:32:38;;;;;;;7.80;2.57;;;;;;;11.47;100.00;100615.44;7394178;19;20385;-51
2022/11/08 02:35:12;;;;;;;9.93;2.57;;;;;;;11.50;100.00;100618.94;7392429;19;20499;-55
2022/11/08 02:37:41;;;;;;;8.03;1.87;;;;;;;11.51;100.00;100618.13;7390056;19;20420;-53
2022/11/08 02:40:14;;;;;;;8.67;2.10;;;;;;;11.53;100.00;100621.66;7391564;19;20422;-53
2022/11/08 02:42:43;;;;;;;7.70;2.30;;;;;;;11.53;100.00;100622.53;7394140;19;20420;-54
2022/11/08 02:45:13;;;;;;;8.63;1.70;;;;;;;11.56;100.00;100609.72;7392439;19;20409;-53
2022/11/08 02:47:42;;;;;;;11.80;1.90;;;;;;;11.63;100.00;100615.97;7393920;19;20396;-54
2022/11/08 02:50:12;;;;;;;11.10;2.60;;;;;;;11.68;100.00;100613.53;7391502;19;20444;-50
2022/11/08 02:52:41;;;;;;;9.90;1.70;;;;;;;11.69;100.00;100623.94;7395666;19;20437;-51
2022/11/08 02:55:13;;;;;;;5.40;1.80;;;;;;;11.68;100.00;100609.28;7391669;19;20975;-54
2022/11/08 02:57:43;;;;;;;7.17;1.73;;;;;;;11.69;100.00;100612.75;7394060;19;21070;-52
2022/11/08 03:00:14;;;;;;;9.30;2.20;;;;;;;11.78;100.00;100614.78;7390402;19;20407;-54
2022/11/08 03:02:44;;;;;;;12.30;2.20;;;;;;;11.81;100.00;100610.59;7394047;19;20410;-52
2022/11/08 03:05:14;;;;;;;13.93;2.90;;;;;;;11.80;100.00;100615.69;7391368;19;20413;-50
2022/11/08 03:07:43;;;;;;;9.33;2.43;;;;;;;11.81;100.00;100609.69;7393586;19;20430;-51
2022/11/08 03:10:15;;;;;;;5.50;1.70;;;;;;;11.82;100.00;100607.16;7388841;19;21178;-52
2022/11/08 03:12:45;;;;;;;8.40;1.43;;;;;;;11.81;100.00;100625.19;7393044;19;20423;-54
2022/11/08 03:15:15;;;;;;;11.80;1.97;;;;;;;11.81;100.00;100626.09;7390738;19;20410;-52
2022/11/08 03:17:45;;;;;;;4.60;2.03;;;;;;;11.84;100.00;100625.31;7393272;19;20396;-51
2022/11/08 03:20:14;;;;;;;8.57;1.73;;;;;;;11.81;100.00;100615.75;7389264;19;20402;-52
2022/11/08 03:22:44;;;;;;;9.03;2.43;;;;;;;11.83;100.00;100623.53;7392887;19;20391;-53
2022/11/08 03:25:16;;;;;;;7.47;2.83;;;;;;;11.80;100.00;100623.44;7389509;19;20437;-50
2022/11/08 03:27:45;;;;;;;13.50;2.40;;;;;;;11.78;100.00;100617.34;7393838;19;20398;-55
2022/11/08 03:30:15;;;;;;;11.77;2.23;;;;;;;11.73;100.00;100615.47;7388716;19;20402;-52
2022/11/08 03:32:45;;;;;;;13.30;2.10;;;;;;;11.70;100.00;100617.94;7392405;19;20413;-54
2022/11/08 03:35:15;;;;;;;8.20;2.40;;;;;;;11.69;100.00;100613.59;7390071;19;20409;-55
2022/11/08 03:37:51;;;;;;;6.73;1.77;;;;;;;11.69;100.00;100615.31;7395509;19;20935;-52
2022/11/08 03:40:24;;;;;;;4.83;1.70;;;;;;;11.65;100.00;100618.63;7387445;19;20429;-54
2022/11/08 03:42:54;;;;;;;6.67;2.00;;;;;;;11.59;100.00;100606.38;7392331;19;20391;-57
2022/11/08 03:45:23;;;;;;;11.77;2.30;;;;;;;11.56;100.00;100616.59;7391995;19;20448;-52
2022/11/08 03:47:53;;;;;;;11.00;2.87;;;;;;;11.51;100.00;100611.25;7396377;19;20428;-54
2022/11/08 03:50:22;;;;;;;8.13;2.63;;;;;;;11.52;100.00;100613.03;7389343;19;20461;-54
2022/11/08 03:52:53;;;;;;;9.30;2.70;;;;;;;11.48;100.00;100605.97;7392242;19;20393;-53
2022/11/08 03:55:28;;;;;;;10.00;2.00;;;;;;;11.44;100.00;100612.75;7389008;19;20416;-52
2022/11/08 03:57:57;;;;;;;7.87;2.27;;;;;;;11.43;100.00;100607.53;7392348;19;20413;-53
2022/11/08 04:00:30;;;;;;;7.50;2.27;;;;;;;11.38;100.00;100615.09;7388966;19;20465;-54
2022/11/08 04:03:04;;;;;;;5.60;2.20;;;;;;;11.33;100.00;100611.47;7391812;19;20461;-52
2022/11/08 04:05:33;;;;;;;6.67;2.17;;;;;;;11.34;100.00;100615.84;7389232;19;20437;-53
2022/11/08 04:08:03;;;;;;;7.87;1.83;;;;;;;11.29;100.00;100605.31;7391698;19;20388;-52
2022/11/08 04:10:36;;;;;;;5.60;2.40;;;;;;;11.31;100.00;100613.13;7387448;19;20409;-53
2022/11/08 04:15:48;;;;;;;7.97;2.60;;;;;;;11.24;100.00;100605.97;7388776;19;20413;-51
2022/11/08 04:23:44;;;;;;;8.93;2.27;;;;;;;11.19;100.00;100608.41;7390818;19;20426;-52
2022/11/08 04:26:16;;;;;;;6.67;2.07;;;;;;;11.15;100.00;100591.91;7388142;19;20796;-53
2022/11/08 04:28:46;;;;;;;9.03;2.57;;;;;;;11.15;100.00;100589.34;7389239;19;20384;-56
2022/11/08 04:31:17;;;;;;;8.30;2.30;;;;;;;11.11;100.00;100595.19;7387639;19;20407;-53
2022/11/08 04:33:47;;;;;;;9.60;2.10;;;;;;;11.07;100.00;100594.22;7390261;19;21037;-52
2022/11/08 04:36:18;;;;;;;6.20;2.17;;;;;;;11.03;100.00;100583.72;7387244;19;20442;-52
2022/11/08 04:38:49;;;;;;;6.17;2.60;;;;;;;11.03;100.00;100586.31;7389060;19;21184;-51
2022/11/08 04:41:23;;;;;;;10.93;2.40;;;;;;;10.98;100.00;100577.50;7388278;19;20436;-52
2022/11/08 04:43:53;;;;;;;8.67;2.20;;;;;;;10.97;100.00;100592.09;7390265;19;20936;-53
2022/11/08 04:46:25;;;;;;;8.07;2.20;;;;;;;10.94;100.00;100581.66;7387356;19;20412;-52
2022/11/08 04:48:56;;;;;;;9.70;1.97;;;;;;;10.89;100.00;100588.34;7389621;19;20392;-52
2022/11/08 04:51:28;;;;;;;4.87;1.90;;;;;;;10.87;100.00;100585.72;7386693;19;21093;-52
2022/11/08 04:53:58;;;;;;;5.93;1.50;;;;;;;10.84;100.00;100582.13;7390021;19;20414;-51
2022/11/08 04:56:32;;;;;;;10.17;1.90;;;;;;;10.81;100.00;100588.06;7387541;19;20439;-50
2022/11/08 04:59:02;;;;;;;13.70;2.40;;;;;;;10.84;100.00;100576.97;7389299;19;20372;-51
2022/11/08 05:01:37;;;;;;;6.60;1.83;;;;;;;10.88;100.00;100571.97;7387154;19;20482;-54
2022/11/08 05:04:07;;;;;;;9.13;2.27;;;;;;;10.90;100.00;100575.50;7389652;19;20392;-51
2022/11/08 05:06:36;;;;;;;7.23;2.10;;;;;;;10.89;100.00;100572.88;7386999;19;20429;-55
2022/11/08 05:09:06;;;;;;;12.03;2.33;;;;;;;10.85;100.00;100581.31;7388552;19;20408;-51
2022/11/08 05:11:38;;;;;;;13.03;2.30;;;;;;;10.82;100.00;100571.75;7387624;19;20407;-54
2022/11/08 05:14:07;;;;;;;6.23;1.93;;;;;;;10.80;100.00;100578.56;7389806;19;20392;-54
2022/11/08 05:16:37;;;;;;;11.37;2.37;;;;;;;10.76;100.00;100571.50;7386452;19;20407;-55
2022/11/08 05:19:06;;;;;;;8.23;2.37;;;;;;;10.72;100.00;100574.81;7388724;19;20388;-52
2022/11/08 05:24:23;;;;;;;11.10;2.37;;;;;;;10.71;100.00;100561.03;7388825;19;20392;-54
2022/11/08 05:26:55;;;;;;;8.07;2.30;;;;;;;10.68;100.00;100568.66;7386797;19;20423;-50
2022/11/08 05:29:25;;;;;;;6.60;2.40;;;;;;;10.67;100.00;100567.78;7387892;19;20946;-53
2022/11/08 05:31:54;;;;;;;7.87;2.40;;;;;;;10.65;100.00;100563.38;7385499;19;20418;-54
2022/11/08 05:34:24;;;;;;;9.50;2.93;;;;;;;10.64;100.00;100562.50;7387598;19;20388;-52
2022/11/08 05:36:53;;;;;;;12.93;3.27;;;;;;;10.60;100.00;100563.19;7385040;19;20431;-52
2022/11/08 05:39:23;;;;;;;9.43;2.80;;;;;;;10.59;100.00;100558.88;7386607;19;20399;-51
2022/11/08 05:42:02;;;;;;;10.47;2.30;;;;;;;10.57;100.00;100564.78;7384957;19;20876;-54
2022/11/08 05:44:31;;;;;;;8.27;2.40;;;;;;;10.54;100.00;100555.22;7387361;19;20371;-52
2022/11/08 05:47:01;;;;;;;9.20;2.70;;;;;;;10.51;100.00;100555.97;7385276;19;20427;-51
2022/11/08 05:49:30;;;;;;;7.47;2.30;;;;;;;10.55;100.00;100551.81;7388711;19;20437;-54
2022/11/08 05:52:00;;;;;;;6.90;2.43;;;;;;;10.46;100.00;100546.31;7392327;19;20407;-53
2022/11/08 05:54:30;;;;;;;8.30;3.40;;;;;;;10.42;100.00;100540.13;7395048;19;20412;-54
2022/11/08 05:57:02;;;;;;;7.77;2.43;;;;;;;10.39;100.00;100546.03;7392345;19;20411;-50
2022/11/08 05:59:31;;;;;;;13.83;3.00;;;;;;;10.46;100.00;100541.16;7393679;19;21032;-52
2022/11/08 06:02:01;;;;;;;6.40;1.90;;;;;;;10.46;100.00;100546.31;7394028;19;20427;-52
2022/11/08 06:04:31;;;;;;;4.90;2.57;;;;;;;10.44;100.00;100540.19;7394776;19;20401;-53
2022/11/08 06:07:00;;;;;;;6.43;2.80;;;;;;;10.43;100.00;100541.03;7392631;19;20450;-52
2022/11/08 06:09:29;;;;;;;12.30;3.07;;;;;;;10.44;100.00;100537.63;7392740;19;20391;-54
2022/11/08 06:12:02;;;;;;;7.07;2.60;;;;;;;10.37;100.00;100537.34;7390064;19;20434;-56
2022/11/08 06:14:33;;;;;;;9.67;2.40;;;;;;;10.36;100.00;100538.16;7394056;19;20750;-53
2022/11/08 06:17:03;;;;;;;10.10;3.00;;;;;;;10.32;100.00;100533.72;7392279;19;20969;-55
2022/11/08 06:19:32;;;;;;;8.40;3.40;;;;;;;10.34;100.00;100537.25;7392785;19;20804;-52
2022/11/08 06:22:01;;;;;;;8.00;2.40;;;;;;;10.34;100.00;100529.50;7391951;19;20423;-55
2022/11/08 06:24:31;;;;;;;9.93;2.57;;;;;;;10.30;100.00;100531.91;7393653;19;20399;-53
2022/11/08 06:27:03;;;;;;;7.90;2.90;;;;;;;10.26;100.00;100529.19;7391813;19;20446;-55
2022/11/08 06:29:33;;;;;;;7.73;2.60;;;;;;;10.24;100.00;100527.38;7392301;19;20952;-55
2022/11/08 06:32:02;;;;;;;6.93;2.93;;;;;;;10.26;100.00;100528.34;7389491;19;20415;-54
2022/11/08 06:34:32;;;;;;;13.87;3.30;;;;;;;10.20;100.00;100526.38;7393596;19;20388;-55
2022/11/08 06:37:01;;;;;;;9.40;2.70;;;;;;;10.23;100.00;100523.94;7390444;19;20414;-58
2022/11/08 06:39:31;;;;;;;8.90;2.80;;;;;;;10.20;100.00;100525.50;7391995;19;20510;-54
2022/11/08 06:42:03;;;;;;;13.27;3.13;;;;;;;10.22;100.00;100518.72;7390852;19;20466;-56
2022/11/08 06:44:33;;;;;;;8.30;2.80;;;;;;;10.25;100.00;100523.97;7393519;19;20428;-52
2022/11/08 06:47:02;;;;;;;6.47;2.60;;;;;;;10.25;100.00;100521.38;7390458;19;20445;-55
2022/11/08 06:49:32;;;;;;;5.57;2.60;;;;;;;10.30;100.00;100508.69;7391447;19;20440;-55
2022/11/08 06:52:01;;;;;;;8.83;2.53;;;;;;;10.30;100.00;100519.88;7388651;19;20839;-57
2022/11/08 06:54:31;;;;;;;5.83;2.03;;;;;;;10.27;100.00;100520.63;7392369;19;20392;-52
2022/11/08 06:57:03;;;;;;;8.93;3.33;;;;;;;10.29;100.00;100528.44;7390564;19;20411;-54
2022/11/08 06:59:33;;;;;;;6.93;2.70;;;;;;;10.32;100.00;100530.25;7391510;19;20419;-52
2022/11/08 07:02:02;;;;;;;12.47;3.40;;;;;;;10.30;100.00;100530.19;7390137;19;20415;-56
2022/11/08 07:04:32;;;;;;;10.00;3.30;;;;;;;10.31;100.00;100523.34;7392656;19;20412;-50
2022/11/08 07:07:01;;;;;;;10.30;2.70;;;;;;;10.43;100.00;100530.69;7390392;19;20404;-54
2022/11/08 07:09:31;;;;;;;8.30;3.27;;;;;;;10.46;100.00;100525.69;7393009;19;20433;-53
2022/11/08 07:12:03;;;;;;;42.00;13.17;;;;;;;10.31;100.00;100525.94;7388025;19;20435;-54
2022/11/08 07:14:33;;;;;;;10.20;4.33;;;;;;;10.38;100.00;100527.91;7392263;19;20532;-54
2022/11/08 07:17:02;;;;;;;9.17;2.40;;;;;;;10.21;100.00;100529.84;7389563;19;20428;-56
2022/11/08 07:19:32;;;;;;;9.13;3.80;;;;;;;10.31;100.00;100525.94;7390632;19;20459;-51
2022/11/08 07:22:01;;;;;;;12.03;3.07;;;;;;;10.20;100.00;100526.38;7389013;19;20447;-51
2022/11/08 07:24:31;;;;;;;8.83;3.43;;;;;;;10.23;100.00;100528.19;7392054;19;20770;-52
2022/11/08 07:27:03;;;;;;;16.77;5.40;;;;;;;10.15;100.00;100524.44;7390193;19;20809;-53
2022/11/08 07:29:32;;;;;;;7.70;3.03;;;;;;;10.11;100.00;100524.31;7390511;19;20411;-55
2022/11/08 07:32:01;;;;;;;8.57;3.27;;;;;;;10.07;100.00;100524.13;7387283;19;20452;-52
2022/11/08 07:34:32;;;;;;;11.97;3.10;;;;;;;10.07;100.00;100519.88;7391488;19;20387;-54
2022/11/08 07:37:02;;;;;;;12.20;5.07;;;;;;;10.07;100.00;100521.56;7389421;19;20436;-54
2022/11/08 07:39:31;;;;;;;9.10;2.87;;;;;;;10.05;100.00;100520.63;7390388;19;20443;-54
2022/11/08 07:42:03;;;;;;;10.67;3.03;;;;;;;10.07;100.00;100522.44;7386397;19;20431;-54
2022/11/08 07:44:33;;;;;;;29.93;10.33;;;;;;;10.13;100.00;100522.69;7390879;19;20419;-50
2022/11/08 07:47:02;;;;;;;13.60;3.70;;;;;;;10.21;100.00;100524.69;7388861;19;20411;-52
2022/11/08 07:49:32;;;;;;;18.53;3.60;;;;;;;10.22;100.00;100516.13;7390104;19;20492;-56
2022/11/08 07:52:01;;;;;;;7.93;2.90;;;;;;;10.29;100.00;100517.25;7387319;19;20439;-54
2022/11/08 07:54:31;;;;;;;9.63;2.53;;;;;;;10.26;100.00;100528.34;7394229;19;20408;-50
2022/11/08 07:57:03;;;;;;;8.20;2.97;;;;;;;10.27;100.00;100517.19;7387680;19;20411;-55
2022/11/08 07:59:32;;;;;;;7.73;2.73;;;;;;;10.31;100.00;100521.63;7389774;19;20431;-55
2022/11/08 08:02:02;;;;;;;10.93;3.30;;;;;;;10.38;100.00;100518.50;7390673;19;20439;-55
2022/11/08 08:04:32;;;;;;;6.60;2.80;;;;;;;10.37;100.00;100521.00;7391115;19;20390;-51
2022/11/08 08:07:01;;;;;;;6.67;2.80;;;;;;;10.37;100.00;100527.03;7387405;19;20423;-51
2022/11/08 08:09:33;;;;;;;9.67;2.87;;;;;;;10.41;100.00;100525.44;7388968;19;20523;-54
2022/11/08 08:12:07;;;;;;;8.90;2.50;;;;;;;10.46;100.00;100517.94;7384752;19;20424;-55
2022/11/08 08:14:36;;;;;;;7.67;3.43;;;;;;;10.49;100.00;100525.78;7390670;19;20392;-56
2022/11/08 08:17:06;;;;;;;7.70;2.60;;;;;;;10.57;100.00;100526.97;7387185;19;20427;-55
2022/11/08 08:19:36;;;;;;;6.43;3.03;;;;;;;10.66;100.00;100527.31;7389058;19;20406;-55
2022/11/08 08:22:05;;;;;;;6.53;2.87;;;;;;;10.74;100.00;100529.28;7386668;19;20456;-53
2022/11/08 08:24:35;;;;;;;13.63;4.40;;;;;;;10.84;100.00;100538.25;7390254;19;20414;-52
2022/11/08 08:27:07;;;;;;;14.53;4.10;;;;;;;10.93;100.00;100549.81;7387927;19;20449;-50
2022/11/08 08:29:36;;;;;;;6.60;2.80;;;;;;;11.00;100.00;100550.03;7387872;19;20445;-51
2022/11/08 08:32:07;;;;;;;9.00;3.23;;;;;;;11.02;100.00;100554.44;7386931;19;20435;-51
2022/11/08 08:34:36;;;;;;;6.13;2.70;;;;;;;11.08;100.00;100561.53;7389219;19;20388;-50
2022/11/08 08:37:05;;;;;;;5.47;2.20;;;;;;;11.13;100.00;100562.56;7386046;19;20462;-53
2022/11/08 08:39:35;;;;;;;8.90;2.50;;;;;;;11.16;100.00;100562.69;7388981;19;20477;-54
2022/11/08 08:42:07;;;;;;;6.33;2.60;;;;;;;11.13;100.00;100559.97;7391166;19;20446;-50
2022/11/08 08:44:37;;;;;;;11.13;3.33;;;;;;;11.17;100.00;100564.44;7388167;19;20415;-51
2022/11/08 08:47:06;;;;;;;8.50;2.63;;;;;;;11.15;100.00;100566.09;7387544;19;20416;-55
2022/11/08 08:49:36;;;;;;;7.77;2.57;;;;;;;11.15;100.00;100566.09;7388153;19;20396;-50
2022/11/08 08:52:06;;;;;;;12.33;3.30;;;;;;;11.17;100.00;100564.44;7386347;19;20473;-49
2022/11/08 08:54:36;;;;;;;8.87;3.20;;;;;;;11.25;100.00;100562.13;7391483;19;20516;-51
2022/11/08 08:57:08;;;;;;;4.70;2.50;;;;;;;11.30;100.00;100559.72;7384340;19;20437;-53
2022/11/08 08:59:37;;;;;;;11.03;2.70;;;;;;;11.31;100.00;100554.59;7388214;19;20782;-49
2022/11/08 09:02:27;;;;;;;8.63;2.90;;;;;;;11.28;100.00;100557.06;7387513;19;20873;-49
2022/11/08 09:04:57;;;;;;;15.50;2.30;;;;;;;11.40;100.00;100561.81;7384489;19;20778;-51
2022/11/08 09:07:27;;;;;;;6.30;2.53;;;;;;;11.45;100.00;100557.66;7388219;19;20410;-51
2022/11/08 09:09:56;;;;;;;5.77;2.20;;;;;;;11.51;100.00;100554.44;7384599;19;20422;-54
2022/11/08 09:12:29;;;;;;;8.97;2.20;;;;;;;11.46;100.00;100556.84;7387729;19;20426;-57
2022/11/08 09:14:58;;;;;;;4.80;1.80;;;;;;;11.48;100.00;100554.31;7385653;19;20389;-55
2022/11/08 09:17:28;;;;;;;9.47;2.10;;;;;;;11.57;100.00;100553.75;7388645;19;20507;-59
2022/11/08 09:19:58;;;;;;;7.00;2.23;;;;;;;11.66;100.00;100553.19;7385038;19;20421;-52
2022/11/08 09:22:27;;;;;;;8.07;2.10;;;;;;;11.72;100.00;100548.22;7387652;19;20390;-51
2022/11/08 09:24:57;;;;;;;9.13;2.77;;;;;;;11.80;100.00;100554.53;7390309;19;20406;-51
2022/11/08 09:27:30;;;;;;;10.80;3.60;;;;;;;11.91;100.00;100554.00;7396936;19;20421;-54
2022/11/08 09:30:00;;;;;;;8.23;2.33;;;;;;;11.95;100.00;100558.47;7391234;19;20426;-51
2022/11/08 09:32:30;;;;;;;4.80;1.93;;;;;;;11.90;100.00;100560.91;7394379;19;20393;-53
2022/11/08 09:35:19;;;;;;;7.63;2.10;;;;;;;11.91;100.00;100559.19;7392692;19;20476;-52
2022/11/08 09:37:49;;;;;;;6.63;2.30;;;;;;;11.96;100.00;100550.78;7395478;19;20409;-53
2022/11/08 09:40:19;;;;;;;5.97;2.03;;;;;;;12.01;100.00;100558.66;7391276;19;20438;-54
2022/11/08 09:42:57;;;;;;;14.57;3.07;;;;;;;12.00;100.00;100555.19;7395383;19;20930;-53
2022/11/08 09:45:29;;;;;;;7.20;2.80;;;;;;;12.06;100.00;100556.25;7392709;19;20450;-53
2022/11/08 09:48:01;;;;;;;8.87;2.20;;;;;;;12.13;100.00;100560.78;7395297;19;20754;-51
2022/11/08 09:50:39;;;;;;;9.90;2.43;;;;;;;12.11;100.00;100563.31;7389782;19;20430;-53
2022/11/08 09:53:17;;;;;;;10.53;3.57;;;;;;;12.16;100.00;100563.50;7394147;19;20925;-53
2022/11/08 09:55:50;;;;;;;5.10;2.07;;;;;;;12.14;100.00;100565.13;7390993;19;20984;-50
2022/11/08 09:58:26;;;;;;;4.93;2.00;;;;;;;12.15;100.00;100565.19;7394586;19;20394;-52
2022/11/08 10:00:56;;;;;;;14.87;3.70;;;;;;;12.15;100.00;100557.44;7390331;19;20453;-52
2022/11/08 10:03:26;;;;;;;6.23;2.07;;;;;;;12.16;100.00;100555.72;7395181;19;20390;-52
2022/11/08 10:06:20;;;;;;;7.10;2.20;;;;;;;12.13;100.00;100555.63;7394970;19;20470;-53
2022/11/08 10:08:54;;;;;;;10.03;2.03;;;;;;;12.13;100.00;100556.50;7393061;19;20409;-50
2022/11/08 10:11:43;;;;;;;6.73;2.27;;;;;;;12.15;100.00;100551.38;7391354;19;20417;-49
2022/11/08 10:14:26;;;;;;;8.50;2.20;;;;;;;12.18;100.00;100556.66;7392353;19;20418;-53
2022/11/08 10:17:00;;;;;;;7.60;2.73;;;;;;;12.29;100.00;100549.22;7391348;19;20447;-51
2022/11/08 10:19:50;;;;;;;6.10;2.27;;;;;;;12.16;100.00;100545.38;7393085;19;20417;-51
2022/11/08 10:22:26;;;;;;;8.60;2.40;;;;;;;12.15;100.00;100533.25;7392687;19;20793;-52
2022/11/08 10:25:01;;;;;;;8.33;2.60;;;;;;;12.26;100.00;100534.47;7391405;19;20451;-51
2022/11/08 10:27:35;;;;;;;10.50;2.50;;;;;;;12.19;100.00;100524.78;7395421;19;20829;-53
2022/11/08 10:30:17;;;;;;;11.03;2.53;;;;;;;12.12;100.00;100525.41;7390801;19;20418;-52
2022/11/08 10:32:50;;;;;;;5.80;2.40;;;;;;;12.17;100.00;100510.03;7393797;19;20959;-53
2022/11/08 10:35:26;;;;;;;29.13;13.23;;;;;;;12.51;100.00;100501.59;7390630;19;20426;-50
2022/11/08 10:37:57;;;;;;;52.63;27.30;;;;;;;12.63;100.00;100490.75;7393805;19;20391;-53
2022/11/08 10:40:35;;;;;;;13.37;6.70;;;;;;;12.74;100.00;100485.88;7388269;19;20433;-51
2022/11/08 10:43:09;;;;;;;10.47;4.37;;;;;;;12.86;100.00;100481.88;7393909;19;20410;-54
2022/11/08 10:45:42;;;;;;;11.17;4.00;;;;;;;12.79;100.00;100492.06;7393870;19;20458;-55
2022/11/08 10:48:12;;;;;;;25.97;13.50;;;;;;;12.71;100.00;100488.38;7398493;19;20381;-52
2022/11/08 10:50:45;;;;;;;8.73;2.23;;;;;;;12.58;100.00;100481.97;7390103;19;20446;-52
2022/11/08 10:53:20;;;;;;;9.43;3.60;;;;;;;12.62;100.00;100485.53;7393036;19;20923;-49
2022/11/08 10:55:51;;;;;;;12.63;5.37;;;;;;;12.61;100.00;100486.38;7390655;19;20427;-54
2022/11/08 10:58:33;;;;;;;9.43;4.30;;;;;;;12.61;100.00;100481.19;7393115;19;20430;-51
2022/11/08 11:01:08;;;;;;;13.27;2.77;;;;;;;12.56;100.00;100465.50;7390042;19;20434;-50
2022/11/08 11:03:38;;;;;;;8.50;4.20;;;;;;;12.75;100.00;100464.31;7394044;19;20416;-54
2022/11/08 11:06:13;;;;;;;10.87;5.03;;;;;;;12.69;100.00;100461.56;7391374;19;20411;-49
2022/11/08 11:08:50;;;;;;;9.30;3.20;;;;;;;12.81;100.00;100451.56;7393523;19;20454;-53
2022/11/08 11:11:28;;;;;;;17.43;7.30;;;;;;;12.83;100.00;100451.59;7389861;19;20438;-54
2022/11/08 11:14:14;;;;;;;12.53;2.87;;;;;;;12.70;100.00;100460.72;7393087;19;20380;-52
2022/11/08 11:16:57;;;;;;;7.73;2.43;;;;;;;12.66;100.00;100453.69;7390302;19;20484;-52
2022/11/08 11:19:28;;;;;;;7.30;2.70;;;;;;;12.69;100.00;100454.69;7393191;19;20400;-52
2022/11/08 11:21:59;;;;;;;4.73;1.73;;;;;;;12.74;100.00;100451.34;7388267;19;20448;-49
2022/11/08 11:24:29;;;;;;;8.60;4.00;;;;;;;12.84;100.00;100443.00;7392643;19;20381;-55
2022/11/08 11:27:05;;;;;;;9.57;2.47;;;;;;;12.89;100.00;100443.13;7390890;19;20983;-50
2022/11/08 11:29:35;;;;;;;4.10;1.97;;;;;;;12.99;100.00;100442.53;7391246;19;20447;-51
2022/11/08 11:32:27;;;;;;;6.67;2.10;;;;;;;12.98;100.00;100453.75;7389625;19;20459;-53
2022/11/08 11:34:58;;;;;;;8.33;2.23;;;;;;;13.00;100.00;100446.88;7387725;19;20388;-53
2022/11/08 11:37:34;;;;;;;6.67;2.20;;;;;;;13.16;100.00;100445.56;7392482;19;20516;-51
2022/11/08 11:40:09;;;;;;;12.13;4.47;;;;;;;13.23;100.00;100462.16;7387982;19;20434;-54
2022/11/08 11:42:45;;;;;;;11.17;2.17;;;;;;;13.30;100.00;100452.81;7393994;19;20458;-51
2022/11/08 11:45:20;;;;;;;5.20;2.83;;;;;;;13.27;100.00;100463.97;7389304;19;20486;-52
2022/11/08 11:47:54;;;;;;;7.33;2.13;;;;;;;13.24;100.00;100466.50;7389712;19;20417;-55
2022/11/08 11:50:30;;;;;;;9.80;2.93;;;;;;;13.29;100.00;100453.66;7388757;19;20795;-51
2022/11/08 11:53:01;;;;;;;7.27;3.33;;;;;;;13.31;100.00;100454.56;7392447;19;20429;-49